createdAt,value
2023-04-02T00:03:00.054Z,7.03
2023-04-02T00:06:40.543Z,7.00
2023-04-02T00:09:57.479Z,6.98
2023-04-02T00:13:51.947Z,6.99
2023-04-02T00:17:24.887Z,6.99
2023-04-02T00:21:12.784Z,7.00
2023-04-02T00:24:35.479Z,6.99
2023-04-02T00:28:18.127Z,7.00
2023-04-02T00:31:53.825Z,7.03
2023-04-02T00:35:30.493Z,7.00
2023-04-02T00:39:13.575Z,6.97
2023-04-02T00:42:46.506Z,6.98
2023-04-02T00:46:24.300Z,6.95
2023-04-02T00:50:29.094Z,6.91
2023-04-02T00:53:45.449Z,6.86
2023-04-02T00:57:38.799Z,6.86
2023-04-02T01:01:24.212Z,6.86
2023-04-02T01:04:57.154Z,6.86
2023-04-02T01:08:28.226Z,6.86
2023-04-02T01:12:42.837Z,6.84
2023-04-02T01:15:40.611Z,6.83
2023-04-02T01:19:45.064Z,6.82
2023-04-02T01:23:35.599Z,6.81
2023-04-02T01:27:24.801Z,6.80
2023-04-02T01:31:06.475Z,6.77
2023-04-02T01:34:36.455Z,6.76
2023-04-02T01:38:25.923Z,6.72
2023-04-02T01:42:17.338Z,6.70
2023-04-02T01:45:48.502Z,6.69
2023-04-02T01:49:27.281Z,6.70
2023-04-02T01:53:03.752Z,6.67
2023-04-02T01:56:47.334Z,6.63
2023-04-02T02:00:37.638Z,6.60
2023-04-02T02:04:11.212Z,6.59
2023-04-02T02:07:57.442Z,6.57
2023-04-02T02:11:42.438Z,6.55
2023-04-02T02:15:45.103Z,6.57
2023-04-02T02:19:23.005Z,6.61
2023-04-02T02:22:44.196Z,6.63
2023-04-02T02:26:29.204Z,6.59
2023-04-02T02:30:18.308Z,6.51
2023-04-02T02:34:06.324Z,6.46
2023-04-02T02:37:52.388Z,6.42
2023-04-02T02:41:42.914Z,6.36
2023-04-02T02:45:31.258Z,6.33
2023-04-02T02:49:07.640Z,6.33
2023-04-02T02:53:05.643Z,6.31
2023-04-02T02:56:18.811Z,6.28
2023-04-02T03:00:06.882Z,6.27
2023-04-02T03:03:51.589Z,6.24
2023-04-02T03:07:40.468Z,6.21
2023-04-02T03:11:17.594Z,6.20
2023-04-02T03:15:06.989Z,6.19
2023-04-02T03:19:23.610Z,6.11
2023-04-02T03:22:35.424Z,6.12
2023-04-02T03:26:24.649Z,6.10
2023-04-02T03:30:09.104Z,6.09
2023-04-02T03:33:49.119Z,6.12
2023-04-02T03:37:19.045Z,6.08
2023-04-02T03:41:01.898Z,6.08
2023-04-02T03:44:31.601Z,6.08
2023-04-02T03:48:19.779Z,6.08
2023-04-02T03:52:25.794Z,6.07
2023-04-02T03:55:52.638Z,6.06
2023-04-02T03:59:50.345Z,6.04
2023-04-02T04:02:59.271Z,6.04
2023-04-02T04:06:46.560Z,6.02
2023-04-02T04:10:32.078Z,5.98
2023-04-02T04:14:31.604Z,5.93
2023-04-02T04:18:02.435Z,5.96
2023-04-02T04:21:57.995Z,5.95
2023-04-02T04:25:44.592Z,5.98
2023-04-02T04:29:27.506Z,6.00
2023-04-02T04:32:58.282Z,6.03
2023-04-02T04:36:29.105Z,6.05
2023-04-02T04:40:23.867Z,6.01
2023-04-02T04:44:23.416Z,5.96
2023-04-02T04:48:06.863Z,5.95
2023-04-02T04:51:29.068Z,5.96
2023-04-02T04:55:07.077Z,5.93
2023-04-02T04:58:52.166Z,5.86
2023-04-02T05:02:18.824Z,5.78
2023-04-02T05:06:19.021Z,5.76
2023-04-02T05:09:45.436Z,5.75
2023-04-02T05:13:34.240Z,5.72
2023-04-02T05:17:21.035Z,5.71
2023-04-02T05:20:39.133Z,5.71
2023-04-02T05:25:01.605Z,5.66
2023-04-02T05:28:55.807Z,5.59
2023-04-02T05:32:41.460Z,5.58
2023-04-02T05:36:24.475Z,5.59
2023-04-02T05:40:22.522Z,5.54
2023-04-02T05:44:04.048Z,5.53
2023-04-02T05:47:24.346Z,5.55
2023-04-02T05:50:52.384Z,5.49
2023-04-02T05:54:23.843Z,5.38
2023-04-02T06:01:40.427Z,5.28
2023-04-02T06:05:16.867Z,5.24
2023-04-02T06:08:54.160Z,5.21
2023-04-02T06:12:42.760Z,5.20
2023-04-02T06:16:30.400Z,5.24
2023-04-02T06:20:15.863Z,5.25
2023-04-02T06:23:37.360Z,5.27
2023-04-02T06:27:28.204Z,5.31
2023-04-02T06:30:47.909Z,5.32
2023-04-02T06:34:33.206Z,5.31
2023-04-02T06:38:25.322Z,5.31
2023-04-02T06:42:28.351Z,5.30
2023-04-02T06:45:49.578Z,5.22
2023-04-02T06:49:30.774Z,5.20
2023-04-02T06:53:10.151Z,5.22
2023-04-02T06:56:46.714Z,5.25
2023-04-02T07:00:27.457Z,5.20
2023-04-02T07:03:54.397Z,5.17
2023-04-02T07:07:48.124Z,5.16
2023-04-02T07:11:26.306Z,5.12
2023-04-02T07:15:00.115Z,5.10
2023-04-02T07:18:46.553Z,5.17
2023-04-02T07:22:22.998Z,5.19
2023-04-02T07:26:10.711Z,5.20
2023-04-02T07:29:55.132Z,5.19
2023-04-02T07:33:42.134Z,5.15
2023-04-02T07:37:20.838Z,5.09
2023-04-02T07:40:52.997Z,5.00
2023-04-02T07:44:37.622Z,4.93
2023-04-02T07:48:22.125Z,4.89
2023-04-02T07:52:15.737Z,4.84
2023-04-02T07:55:44.492Z,4.82
2023-04-02T07:59:36.891Z,4.77
2023-04-02T08:03:07.034Z,4.78
2023-04-02T08:06:53.032Z,4.85
2023-04-02T08:10:38.618Z,4.98
2023-04-02T08:14:15.166Z,5.11
2023-04-02T08:17:58.784Z,5.25
2023-04-02T08:21:43.284Z,5.33
2023-04-02T08:25:28.880Z,5.33
2023-04-02T08:29:13.632Z,5.36
2023-04-02T08:32:42.128Z,5.35
2023-04-02T08:36:30.689Z,5.30
2023-04-02T08:40:24.051Z,5.32
2023-04-02T08:44:38.779Z,5.35
2023-04-02T08:48:00.335Z,5.39
2023-04-02T08:51:27.923Z,5.47
2023-04-02T08:55:01.627Z,5.48
2023-04-02T08:58:48.285Z,5.40
2023-04-02T09:02:47.076Z,5.38
2023-04-02T09:06:16.446Z,5.40
2023-04-02T09:09:48.612Z,5.35
2023-04-02T09:13:38.944Z,5.27
2023-04-02T09:17:20.083Z,5.23
2023-04-02T09:20:49.407Z,5.25
2023-04-02T09:24:33.906Z,5.24
2023-04-02T09:28:20.440Z,5.21
2023-04-02T09:32:01.154Z,5.24
2023-04-02T09:36:03.046Z,5.30
2023-04-02T09:39:26.383Z,5.39
2023-04-02T09:43:15.846Z,5.40
2023-04-02T09:47:28.186Z,5.46
2023-04-02T09:50:46.240Z,5.50
2023-04-02T09:54:33.412Z,5.47
2023-04-02T09:58:12.232Z,5.49
2023-04-02T10:01:34.259Z,5.54
2023-04-02T10:05:39.387Z,5.54
2023-04-02T10:08:48.545Z,5.53
2023-04-02T10:12:39.609Z,5.53
2023-04-02T10:16:05.014Z,5.54
2023-04-02T10:19:51.873Z,5.55
2023-04-02T10:23:37.651Z,5.49
2023-04-02T10:27:26.215Z,5.49
2023-04-02T10:31:13.655Z,5.53
2023-04-02T10:35:01.832Z,5.56
2023-04-02T10:38:51.021Z,5.60
2023-04-02T10:42:40.272Z,5.64
2023-04-02T10:46:18.770Z,5.61
2023-04-02T10:50:31.224Z,5.55
2023-04-02T10:53:45.355Z,5.53
2023-04-02T10:57:40.641Z,5.53
2023-04-02T11:01:29.409Z,5.50
2023-04-02T11:05:20.186Z,5.52
2023-04-02T11:09:07.443Z,5.55
2023-04-02T11:12:57.859Z,5.57
2023-04-02T11:16:29.890Z,5.56
2023-04-02T11:20:58.344Z,5.52
2023-04-02T11:25:22.013Z,5.45
2023-04-02T11:28:30.611Z,5.41
2023-04-02T11:32:28.325Z,5.39
2023-04-02T11:36:47.507Z,5.35
2023-04-02T11:40:54.427Z,5.30
2023-04-02T11:44:25.196Z,5.24
2023-04-02T11:48:33.417Z,5.18
2023-04-02T11:51:56.396Z,5.15
2023-04-02T11:55:24.518Z,5.13
2023-04-02T11:58:54.273Z,5.15
2023-04-02T12:02:42.875Z,5.18
2023-04-02T12:06:59.279Z,5.16
2023-04-02T12:10:23.344Z,5.20
2023-04-02T12:13:58.551Z,5.29
2023-04-02T12:17:45.042Z,5.37
2023-04-02T12:21:47.629Z,5.34
2023-04-02T12:25:03.961Z,5.33
2023-04-02T12:28:50.935Z,5.35
2023-04-02T12:32:23.227Z,5.34
2023-04-02T12:36:16.683Z,5.24
2023-04-02T12:40:07.438Z,5.19
2023-04-02T12:43:49.850Z,5.11
2023-04-02T12:47:32.706Z,5.14
2023-04-02T12:51:20.734Z,5.27
2023-04-02T12:54:56.485Z,5.37
2023-04-02T12:58:42.853Z,5.35
2023-04-02T13:02:45.589Z,5.39
2023-04-02T13:06:32.611Z,5.49
2023-04-02T13:09:46.298Z,5.45
2023-04-02T13:13:48.475Z,5.31
2023-04-02T13:17:39.036Z,5.26
2023-04-02T13:21:38.364Z,5.15
2023-04-02T13:25:01.221Z,5.07
2023-04-02T13:28:51.792Z,5.07
2023-04-02T13:32:36.372Z,5.12
2023-04-02T13:36:15.753Z,5.10
2023-04-02T13:39:58.337Z,5.12
2023-04-02T13:43:53.360Z,5.10
2023-04-02T13:47:20.810Z,5.11
2023-04-02T13:51:04.728Z,5.08
2023-04-02T13:54:55.435Z,5.03
2023-04-02T13:58:41.851Z,4.98
2023-04-02T14:02:17.712Z,5.04
2023-04-02T14:05:49.484Z,5.14
2023-04-02T14:09:28.890Z,5.12
2023-04-02T14:13:09.257Z,5.10
2023-04-02T14:17:03.209Z,5.06
2023-04-02T14:20:54.615Z,5.03
2023-04-02T14:24:48.663Z,4.91
2023-04-02T14:28:22.346Z,4.78
2023-04-02T14:32:09.883Z,4.77
2023-04-02T14:36:16.740Z,4.76
2023-04-02T14:39:46.577Z,4.80
2023-04-02T14:43:12.181Z,4.84
2023-04-02T14:47:00.299Z,4.86
2023-04-02T14:50:45.627Z,4.81
2023-04-02T14:54:34.958Z,4.75
2023-04-02T14:58:11.361Z,4.72
2023-04-02T15:02:00.289Z,4.66
2023-04-02T15:05:39.631Z,4.60
2023-04-02T15:09:11.749Z,4.55
2023-04-02T15:12:58.211Z,4.46
2023-04-02T15:17:11.236Z,4.42
2023-04-02T15:20:22.253Z,4.37
2023-04-02T15:24:21.741Z,4.31
2023-04-02T15:27:56.138Z,4.23
2023-04-02T15:31:22.480Z,4.15
2023-04-02T15:35:36.609Z,4.10
2023-04-02T15:38:47.100Z,4.04
2023-04-02T15:42:34.402Z,3.99
2023-04-02T15:46:51.772Z,3.94
2023-04-02T15:50:23.207Z,3.91
2023-04-02T15:53:38.986Z,3.89
2023-04-02T15:57:39.872Z,3.85
2023-04-02T16:01:09.837Z,3.83
2023-04-02T16:05:00.893Z,3.81
2023-04-02T16:08:40.867Z,3.79
2023-04-02T16:12:17.347Z,3.68
2023-04-02T16:15:50.684Z,3.67
2023-04-02T16:19:30.292Z,3.62
2023-04-02T16:23:07.065Z,3.58
2023-04-02T16:26:59.415Z,3.52
2023-04-02T16:30:40.091Z,3.49
2023-04-02T16:34:17.175Z,3.47
2023-04-02T16:37:44.191Z,3.47
2023-04-02T16:41:23.685Z,3.47
2023-04-02T16:44:58.585Z,3.42
2023-04-02T16:48:55.045Z,3.38
2023-04-02T16:52:35.460Z,3.38
2023-04-02T16:56:12.997Z,3.38
2023-04-02T16:59:45.549Z,3.34
2023-04-02T17:03:26.316Z,3.32
2023-04-02T17:07:15.321Z,3.24
2023-04-02T17:11:02.939Z,3.18
2023-04-02T17:14:50.936Z,3.11
2023-04-02T17:18:52.701Z,3.06
2023-04-02T17:22:18.200Z,3.04
2023-04-02T17:26:07.144Z,3.01
2023-04-02T17:30:21.789Z,3.01
2023-04-02T17:33:46.341Z,3.02
2023-04-02T17:37:38.256Z,3.04
2023-04-02T17:40:52.117Z,3.06
2023-04-02T17:44:48.425Z,3.07
2023-04-02T17:48:17.925Z,3.09
2023-04-02T17:52:17.465Z,3.10
2023-04-02T17:55:44.553Z,3.12
2023-04-02T17:59:38.857Z,3.12
2023-04-02T18:03:31.495Z,3.17
2023-04-02T18:06:51.650Z,3.19
2023-04-02T18:10:27.243Z,3.21
2023-04-02T18:14:25.090Z,3.25
2023-04-02T18:18:15.048Z,3.21
2023-04-02T18:22:04.060Z,3.17
2023-04-02T18:26:02.238Z,3.18
2023-04-02T18:29:34.204Z,3.20
2023-04-02T18:33:49.584Z,3.20
2023-04-02T18:37:05.563Z,3.19
2023-04-02T18:41:01.103Z,3.21
2023-04-02T18:44:54.744Z,3.21
2023-04-02T18:48:46.877Z,3.21
2023-04-02T18:52:16.799Z,3.24
2023-04-02T18:56:06.109Z,3.26
2023-04-02T18:59:52.932Z,3.23
2023-04-02T19:03:41.109Z,3.20
2023-04-02T19:07:26.801Z,3.19
2023-04-02T19:11:16.745Z,3.19
2023-04-02T19:14:51.981Z,3.20
2023-04-02T19:18:53.616Z,3.21
2023-04-02T19:22:31.610Z,3.26
2023-04-02T19:26:17.233Z,3.22
2023-04-02T19:30:38.665Z,3.21
2023-04-02T19:33:46.056Z,3.22
2023-04-02T19:37:38.445Z,3.24
2023-04-02T19:40:58.838Z,3.23
2023-04-02T19:44:32.596Z,3.21
2023-04-02T19:48:49.477Z,3.22
2023-04-02T19:51:55.960Z,3.25
2023-04-02T19:55:32.776Z,3.27
2023-04-02T19:59:17.663Z,3.25
2023-04-02T20:03:02.801Z,3.26
2023-04-02T20:07:03.706Z,3.25
2023-04-02T20:10:26.370Z,3.27
2023-04-02T20:14:01.832Z,3.28
2023-04-02T20:17:56.413Z,3.27
2023-04-02T20:21:28.043Z,3.24
2023-04-02T20:25:02.708Z,3.23
2023-04-02T20:28:40.998Z,3.21
2023-04-02T20:32:43.075Z,3.19
2023-04-02T20:35:56.833Z,3.19
2023-04-02T20:39:30.761Z,3.22
2023-04-02T20:43:15.336Z,3.27
2023-04-02T20:47:03.099Z,3.30
2023-04-02T20:50:38.021Z,3.28
2023-04-02T20:54:23.272Z,3.30
2023-04-02T20:58:08.653Z,3.32
2023-04-02T21:01:53.198Z,3.35
2023-04-02T21:05:54.834Z,3.36
2023-04-02T21:09:17.388Z,3.33
2023-04-02T21:13:01.742Z,3.32
2023-04-02T21:16:56.062Z,3.34
2023-04-02T21:20:22.924Z,3.34
2023-04-02T21:24:07.438Z,3.33
2023-04-02T21:27:51.961Z,3.30
2023-04-02T21:31:37.179Z,3.27
2023-04-02T21:35:38.541Z,3.25
2023-04-02T21:39:03.044Z,3.22
2023-04-02T21:42:45.090Z,3.20
2023-04-02T21:46:30.405Z,3.18
2023-04-02T21:49:52.759Z,3.16
2023-04-02T21:53:35.712Z,3.14
2023-04-02T21:57:20.403Z,3.09
2023-04-02T22:01:07.139Z,3.03
2023-04-02T22:05:10.539Z,2.98
2023-04-02T22:08:31.443Z,2.96
2023-04-02T22:12:17.096Z,2.92
2023-04-02T22:15:53.553Z,2.88
2023-04-02T22:19:36.006Z,2.82
2023-04-02T22:23:20.647Z,2.79
2023-04-02T22:27:15.106Z,2.76
2023-04-02T22:30:46.350Z,2.71
2023-04-02T22:34:21.469Z,2.66
2023-04-02T22:37:57.407Z,2.67
2023-04-02T22:41:41.882Z,2.64
2023-04-02T22:45:27.325Z,2.61
2023-04-02T22:49:04.637Z,2.57
2023-04-02T22:52:59.104Z,2.56
2023-04-02T22:56:37.683Z,2.58
2023-04-02T23:00:06.375Z,2.55
2023-04-02T23:03:53.667Z,2.51
2023-04-02T23:07:20.160Z,2.49
2023-04-02T23:11:22.816Z,2.48
2023-04-02T23:14:42.282Z,2.45
2023-04-02T23:18:26.826Z,2.41
2023-04-02T23:22:21.470Z,2.36
2023-04-02T23:25:49.136Z,2.33
2023-04-02T23:29:51.339Z,2.31
2023-04-02T23:33:09.311Z,2.28
2023-04-02T23:36:53.959Z,2.22
2023-04-02T23:41:03.277Z,2.18
2023-04-02T23:44:16.118Z,2.13
2023-04-02T23:47:58.431Z,2.10
2023-04-02T23:51:41.519Z,2.08
2023-04-02T23:55:26.864Z,2.02
2023-04-02T23:59:03.715Z,1.97
